sensor_id;sensor_type;location;lat;lon;timestamp;P1;durP1;ratioP1;P2;durP2;ratioP2
44774;SDS011;31340;51.402;0.016;2022-12-18T00:03:53;75.63;;;28.15;;
44774;SDS011;31340;51.402;0.016;2022-12-18T00:06:23;76.68;;;31.48;;
44774;SDS011;31340;51.402;0.016;2022-12-18T00:08:54;74.28;;;31.08;;
44774;SDS011;31340;51.402;0.016;2022-12-18T00:11:24;78.32;;;32.28;;
44774;SDS011;31340;51.402;0.016;2022-12-18T00:13:54;77.45;;;30.85;;
44774;SDS011;31340;51.402;0.016;2022-12-18T00:16:24;76.47;;;31.70;;
44774;SDS011;31340;51.402;0.016;2022-12-18T00:18:53;73.45;;;29.90;;
44774;SDS011;31340;51.402;0.016;2022-12-18T00:21:25;66.47;;;27.45;;
44774;SDS011;31340;51.402;0.016;2022-12-18T00:23:54;80.20;;;30.52;;
44774;SDS011;31340;51.402;0.016;2022-12-18T00:26:23;75.32;;;31.55;;
44774;SDS011;31340;51.402;0.016;2022-12-18T00:29:00;72.00;;;30.08;;
44774;SDS011;31340;51.402;0.016;2022-12-18T00:31:35;70.90;;;30.23;;
44774;SDS011;31340;51.402;0.016;2022-12-18T00:34:04;77.95;;;30.10;;
44774;SDS011;31340;51.402;0.016;2022-12-18T00:36:32;79.05;;;30.33;;
44774;SDS011;31340;51.402;0.016;2022-12-18T00:39:02;74.93;;;31.02;;
44774;SDS011;31340;51.402;0.016;2022-12-18T00:41:30;70.80;;;29.23;;
44774;SDS011;31340;51.402;0.016;2022-12-18T00:44:17;71.13;;;27.30;;
44774;SDS011;31340;51.402;0.016;2022-12-18T00:46:46;68.07;;;29.95;;
44774;SDS011;31340;51.402;0.016;2022-12-18T00:49:16;73.40;;;28.98;;
44774;SDS011;31340;51.402;0.016;2022-12-18T00:51:45;74.30;;;29.80;;
44774;SDS011;31340;51.402;0.016;2022-12-18T00:54:14;71.03;;;28.90;;
44774;SDS011;31340;51.402;0.016;2022-12-18T00:56:43;72.53;;;26.40;;
44774;SDS011;31340;51.402;0.016;2022-12-18T00:59:16;65.22;;;27.98;;
44774;SDS011;31340;51.402;0.016;2022-12-18T01:01:44;72.03;;;26.55;;
44774;SDS011;31340;51.402;0.016;2022-12-18T01:04:13;70.30;;;26.80;;
44774;SDS011;31340;51.402;0.016;2022-12-18T01:06:44;64.07;;;25.17;;
44774;SDS011;31340;51.402;0.016;2022-12-18T01:09:12;64.28;;;27.30;;
44774;SDS011;31340;51.402;0.016;2022-12-18T01:11:40;61.53;;;26.33;;
44774;SDS011;31340;51.402;0.016;2022-12-18T01:14:10;64.70;;;26.55;;
44774;SDS011;31340;51.402;0.016;2022-12-18T01:16:38;63.33;;;25.35;;
44774;SDS011;31340;51.402;0.016;2022-12-18T01:19:06;63.28;;;26.42;;
44774;SDS011;31340;51.402;0.016;2022-12-18T01:21:33;63.30;;;26.98;;
44774;SDS011;31340;51.402;0.016;2022-12-18T01:24:03;64.55;;;25.38;;
44774;SDS011;31340;51.402;0.016;2022-12-18T01:26:33;61.92;;;25.77;;
44774;SDS011;31340;51.402;0.016;2022-12-18T01:29:00;66.55;;;27.15;;
44774;SDS011;31340;51.402;0.016;2022-12-18T01:31:29;69.88;;;25.83;;
44774;SDS011;31340;51.402;0.016;2022-12-18T01:34:02;70.30;;;25.65;;
44774;SDS011;31340;51.402;0.016;2022-12-18T01:36:35;66.38;;;26.75;;
44774;SDS011;31340;51.402;0.016;2022-12-18T01:39:06;69.80;;;26.15;;
44774;SDS011;31340;51.402;0.016;2022-12-18T01:41:41;68.30;;;26.48;;
44774;SDS011;31340;51.402;0.016;2022-12-18T01:47:33;67.50;;;25.67;;
44774;SDS011;31340;51.402;0.016;2022-12-18T01:50:06;68.15;;;26.40;;
44774;SDS011;31340;51.402;0.016;2022-12-18T01:52:45;61.80;;;24.17;;
44774;SDS011;31340;51.402;0.016;2022-12-18T01:55:16;62.50;;;24.42;;
44774;SDS011;31340;51.402;0.016;2022-12-18T02:00:15;68.25;;;26.17;;
44774;SDS011;31340;51.402;0.016;2022-12-18T02:02:45;65.22;;;24.13;;
44774;SDS011;31340;51.402;0.016;2022-12-18T02:05:15;65.32;;;25.10;;
44774;SDS011;31340;51.402;0.016;2022-12-18T02:10:24;67.43;;;25.30;;
44774;SDS011;31340;51.402;0.016;2022-12-18T02:16:24;64.70;;;24.55;;
44774;SDS011;31340;51.402;0.016;2022-12-18T02:19:06;66.97;;;23.55;;
44774;SDS011;31340;51.402;0.016;2022-12-18T02:21:55;63.05;;;23.55;;
44774;SDS011;31340;51.402;0.016;2022-12-18T02:24:35;58.38;;;22.63;;
44774;SDS011;31340;51.402;0.016;2022-12-18T02:27:32;56.03;;;21.17;;
44774;SDS011;31340;51.402;0.016;2022-12-18T02:30:02;59.13;;;23.00;;
44774;SDS011;31340;51.402;0.016;2022-12-18T02:32:39;56.97;;;23.17;;
44774;SDS011;31340;51.402;0.016;2022-12-18T02:35:12;58.95;;;23.02;;
44774;SDS011;31340;51.402;0.016;2022-12-18T02:37:45;64.15;;;22.98;;
44774;SDS011;31340;51.402;0.016;2022-12-18T02:40:14;58.50;;;21.55;;
44774;SDS011;31340;51.402;0.016;2022-12-18T02:42:44;57.73;;;22.00;;
44774;SDS011;31340;51.402;0.016;2022-12-18T02:45:15;60.53;;;22.38;;
44774;SDS011;31340;51.402;0.016;2022-12-18T02:47:43;54.95;;;21.75;;
44774;SDS011;31340;51.402;0.016;2022-12-18T02:50:22;61.03;;;22.08;;
44774;SDS011;31340;51.402;0.016;2022-12-18T02:55:55;58.03;;;22.38;;
44774;SDS011;31340;51.402;0.016;2022-12-18T02:58:42;57.05;;;22.02;;
44774;SDS011;31340;51.402;0.016;2022-12-18T03:04:20;56.53;;;20.92;;
44774;SDS011;31340;51.402;0.016;2022-12-18T03:06:59;54.83;;;21.73;;
44774;SDS011;31340;51.402;0.016;2022-12-18T03:09:34;56.85;;;21.80;;
44774;SDS011;31340;51.402;0.016;2022-12-18T03:17:31;52.38;;;20.48;;
44774;SDS011;31340;51.402;0.016;2022-12-18T03:20:05;53.67;;;20.77;;
44774;SDS011;31340;51.402;0.016;2022-12-18T03:22:39;54.08;;;20.98;;
44774;SDS011;31340;51.402;0.016;2022-12-18T03:25:14;51.40;;;19.98;;
44774;SDS011;31340;51.402;0.016;2022-12-18T03:27:49;58.88;;;21.77;;
44774;SDS011;31340;51.402;0.016;2022-12-18T03:30:21;57.75;;;21.63;;
44774;SDS011;31340;51.402;0.016;2022-12-18T03:32:50;49.03;;;20.55;;
44774;SDS011;31340;51.402;0.016;2022-12-18T03:35:32;52.13;;;19.50;;
44774;SDS011;31340;51.402;0.016;2022-12-18T03:38:04;52.85;;;20.77;;
44774;SDS011;31340;51.402;0.016;2022-12-18T03:40:39;46.95;;;18.98;;
44774;SDS011;31340;51.402;0.016;2022-12-18T03:43:16;47.88;;;18.90;;
44774;SDS011;31340;51.402;0.016;2022-12-18T03:45:51;48.22;;;19.48;;
44774;SDS011;31340;51.402;0.016;2022-12-18T03:48:28;51.90;;;20.08;;
44774;SDS011;31340;51.402;0.016;2022-12-18T03:51:08;54.05;;;20.48;;
44774;SDS011;31340;51.402;0.016;2022-12-18T03:53:53;57.38;;;22.05;;
44774;SDS011;31340;51.402;0.016;2022-12-18T03:56:29;58.65;;;21.00;;
44774;SDS011;31340;51.402;0.016;2022-12-18T03:59:02;59.83;;;23.08;;
44774;SDS011;31340;51.402;0.016;2022-12-18T04:01:33;56.17;;;21.70;;
44774;SDS011;31340;51.402;0.016;2022-12-18T04:04:05;48.22;;;20.80;;
44774;SDS011;31340;51.402;0.016;2022-12-18T04:06:37;59.25;;;22.55;;
44774;SDS011;31340;51.402;0.016;2022-12-18T04:09:09;55.90;;;21.92;;
44774;SDS011;31340;51.402;0.016;2022-12-18T04:11:42;51.03;;;21.15;;
44774;SDS011;31340;51.402;0.016;2022-12-18T04:14:13;56.05;;;21.20;;
44774;SDS011;31340;51.402;0.016;2022-12-18T04:16:45;68.60;;;22.92;;
44774;SDS011;31340;51.402;0.016;2022-12-18T04:19:15;62.65;;;21.90;;
44774;SDS011;31340;51.402;0.016;2022-12-18T04:24:14;56.95;;;21.45;;
44774;SDS011;31340;51.402;0.016;2022-12-18T04:26:50;56.13;;;21.70;;
44774;SDS011;31340;51.402;0.016;2022-12-18T04:29:23;75.18;;;24.95;;
44774;SDS011;31340;51.402;0.016;2022-12-18T04:31:51;60.28;;;22.65;;
44774;SDS011;31340;51.402;0.016;2022-12-18T04:34:20;69.95;;;24.17;;
44774;SDS011;31340;51.402;0.016;2022-12-18T04:36:51;61.80;;;22.65;;
44774;SDS011;31340;51.402;0.016;2022-12-18T04:39:20;51.90;;;21.52;;
44774;SDS011;31340;51.402;0.016;2022-12-18T04:41:50;60.42;;;24.27;;
44774;SDS011;31340;51.402;0.016;2022-12-18T04:44:18;61.72;;;22.67;;
44774;SDS011;31340;51.402;0.016;2022-12-18T04:46:45;62.80;;;23.20;;
44774;SDS011;31340;51.402;0.016;2022-12-18T04:49:13;63.70;;;24.23;;
44774;SDS011;31340;51.402;0.016;2022-12-18T04:51:41;63.63;;;23.35;;
44774;SDS011;31340;51.402;0.016;2022-12-18T04:54:08;58.45;;;23.45;;
44774;SDS011;31340;51.402;0.016;2022-12-18T04:56:36;58.72;;;24.33;;
44774;SDS011;31340;51.402;0.016;2022-12-18T04:59:03;61.42;;;24.20;;
44774;SDS011;31340;51.402;0.016;2022-12-18T05:01:31;66.35;;;24.50;;
44774;SDS011;31340;51.402;0.016;2022-12-18T05:04:02;54.50;;;23.70;;
44774;SDS011;31340;51.402;0.016;2022-12-18T05:06:30;58.30;;;22.83;;
44774;SDS011;31340;51.402;0.016;2022-12-18T05:08:57;62.83;;;24.67;;
44774;SDS011;31340;51.402;0.016;2022-12-18T05:11:25;55.15;;;23.88;;
44774;SDS011;31340;51.402;0.016;2022-12-18T05:13:52;62.10;;;23.52;;
44774;SDS011;31340;51.402;0.016;2022-12-18T05:16:23;62.67;;;25.23;;
44774;SDS011;31340;51.402;0.016;2022-12-18T05:18:50;68.60;;;25.95;;
44774;SDS011;31340;51.402;0.016;2022-12-18T05:21:18;59.92;;;22.88;;
44774;SDS011;31340;51.402;0.016;2022-12-18T05:23:45;59.47;;;23.42;;
44774;SDS011;31340;51.402;0.016;2022-12-18T05:26:15;57.22;;;23.48;;
44774;SDS011;31340;51.402;0.016;2022-12-18T05:28:44;60.15;;;23.67;;
44774;SDS011;31340;51.402;0.016;2022-12-18T05:31:13;66.85;;;23.40;;
44774;SDS011;31340;51.402;0.016;2022-12-18T05:33:41;61.88;;;25.13;;
44774;SDS011;31340;51.402;0.016;2022-12-18T05:36:09;58.60;;;24.52;;
44774;SDS011;31340;51.402;0.016;2022-12-18T05:38:38;59.75;;;23.90;;
44774;SDS011;31340;51.402;0.016;2022-12-18T05:41:06;64.82;;;25.73;;
44774;SDS011;31340;51.402;0.016;2022-12-18T05:43:34;61.65;;;25.13;;
44774;SDS011;31340;51.402;0.016;2022-12-18T05:46:08;63.60;;;25.67;;
44774;SDS011;31340;51.402;0.016;2022-12-18T05:48:39;63.33;;;25.38;;
44774;SDS011;31340;51.402;0.016;2022-12-18T05:51:09;65.43;;;26.27;;
44774;SDS011;31340;51.402;0.016;2022-12-18T05:53:38;66.95;;;26.13;;
44774;SDS011;31340;51.402;0.016;2022-12-18T05:56:07;78.60;;;28.20;;
44774;SDS011;31340;51.402;0.016;2022-12-18T05:58:38;66.53;;;27.45;;
44774;SDS011;31340;51.402;0.016;2022-12-18T06:01:09;69.22;;;24.92;;
44774;SDS011;31340;51.402;0.016;2022-12-18T06:03:40;63.35;;;27.20;;
44774;SDS011;31340;51.402;0.016;2022-12-18T06:06:16;68.20;;;26.45;;
44774;SDS011;31340;51.402;0.016;2022-12-18T06:08:46;63.38;;;26.77;;
44774;SDS011;31340;51.402;0.016;2022-12-18T06:11:16;65.88;;;27.20;;
44774;SDS011;31340;51.402;0.016;2022-12-18T06:13:44;61.72;;;25.75;;
44774;SDS011;31340;51.402;0.016;2022-12-18T06:16:13;60.78;;;24.63;;
44774;SDS011;31340;51.402;0.016;2022-12-18T06:18:40;66.72;;;26.17;;
44774;SDS011;31340;51.402;0.016;2022-12-18T06:21:08;65.95;;;24.95;;
44774;SDS011;31340;51.402;0.016;2022-12-18T06:23:35;67.20;;;26.58;;
44774;SDS011;31340;51.402;0.016;2022-12-18T06:26:08;59.88;;;24.52;;
44774;SDS011;31340;51.402;0.016;2022-12-18T06:28:37;64.55;;;25.42;;
44774;SDS011;31340;51.402;0.016;2022-12-18T06:31:05;58.63;;;24.83;;
44774;SDS011;31340;51.402;0.016;2022-12-18T06:33:33;63.03;;;25.00;;
44774;SDS011;31340;51.402;0.016;2022-12-18T06:36:02;61.03;;;24.00;;
44774;SDS011;31340;51.402;0.016;2022-12-18T06:38:33;59.80;;;24.33;;
44774;SDS011;31340;51.402;0.016;2022-12-18T06:41:06;59.58;;;24.35;;
44774;SDS011;31340;51.402;0.016;2022-12-18T06:43:36;61.65;;;24.27;;
44774;SDS011;31340;51.402;0.016;2022-12-18T06:46:04;61.50;;;23.73;;
44774;SDS011;31340;51.402;0.016;2022-12-18T06:48:33;56.67;;;23.05;;
44774;SDS011;31340;51.402;0.016;2022-12-18T06:51:01;52.75;;;22.48;;
44774;SDS011;31340;51.402;0.016;2022-12-18T06:53:29;56.13;;;22.92;;
44774;SDS011;31340;51.402;0.016;2022-12-18T06:56:00;51.22;;;21.83;;
44774;SDS011;31340;51.402;0.016;2022-12-18T06:58:36;72.95;;;23.52;;
44774;SDS011;31340;51.402;0.016;2022-12-18T07:01:05;54.90;;;22.40;;
44774;SDS011;31340;51.402;0.016;2022-12-18T07:03:34;53.63;;;23.60;;
44774;SDS011;31340;51.402;0.016;2022-12-18T07:06:02;58.47;;;23.00;;
44774;SDS011;31340;51.402;0.016;2022-12-18T07:08:30;53.65;;;22.90;;
44774;SDS011;31340;51.402;0.016;2022-12-18T07:10:58;57.88;;;23.60;;
44774;SDS011;31340;51.402;0.016;2022-12-18T07:13:29;63.83;;;23.75;;
44774;SDS011;31340;51.402;0.016;2022-12-18T07:16:02;56.05;;;23.23;;
44774;SDS011;31340;51.402;0.016;2022-12-18T07:18:46;61.75;;;22.92;;
44774;SDS011;31340;51.402;0.016;2022-12-18T07:21:15;53.88;;;21.55;;
44774;SDS011;31340;51.402;0.016;2022-12-18T07:26:15;57.80;;;22.15;;
44774;SDS011;31340;51.402;0.016;2022-12-18T07:28:45;62.05;;;23.63;;
44774;SDS011;31340;51.402;0.016;2022-12-18T07:31:14;57.58;;;24.77;;
44774;SDS011;31340;51.402;0.016;2022-12-18T07:33:43;56.20;;;22.38;;
44774;SDS011;31340;51.402;0.016;2022-12-18T07:36:12;53.63;;;22.20;;
44774;SDS011;31340;51.402;0.016;2022-12-18T07:38:40;56.05;;;23.00;;
44774;SDS011;31340;51.402;0.016;2022-12-18T07:41:09;58.08;;;24.05;;
44774;SDS011;31340;51.402;0.016;2022-12-18T07:43:39;61.88;;;23.58;;
44774;SDS011;31340;51.402;0.016;2022-12-18T07:46:08;59.13;;;24.55;;
44774;SDS011;31340;51.402;0.016;2022-12-18T07:48:39;67.47;;;25.63;;
44774;SDS011;31340;51.402;0.016;2022-12-18T07:51:08;63.45;;;25.30;;
44774;SDS011;31340;51.402;0.016;2022-12-18T07:53:39;59.80;;;24.20;;
44774;SDS011;31340;51.402;0.016;2022-12-18T07:56:09;61.70;;;24.98;;
44774;SDS011;31340;51.402;0.016;2022-12-18T07:58:56;60.75;;;23.88;;
44774;SDS011;31340;51.402;0.016;2022-12-18T08:01:28;58.85;;;25.20;;
44774;SDS011;31340;51.402;0.016;2022-12-18T08:03:57;63.85;;;27.10;;
44774;SDS011;31340;51.402;0.016;2022-12-18T08:06:24;65.50;;;26.52;;
44774;SDS011;31340;51.402;0.016;2022-12-18T08:08:53;61.17;;;26.00;;
44774;SDS011;31340;51.402;0.016;2022-12-18T08:11:23;57.70;;;24.98;;
44774;SDS011;31340;51.402;0.016;2022-12-18T08:13:52;67.90;;;26.15;;
44774;SDS011;31340;51.402;0.016;2022-12-18T08:16:20;62.80;;;24.73;;
44774;SDS011;31340;51.402;0.016;2022-12-18T08:18:49;61.38;;;25.80;;
44774;SDS011;31340;51.402;0.016;2022-12-18T08:21:20;58.22;;;24.35;;
44774;SDS011;31340;51.402;0.016;2022-12-18T08:23:50;65.32;;;26.08;;
44774;SDS011;31340;51.402;0.016;2022-12-18T08:26:19;63.33;;;24.65;;
44774;SDS011;31340;51.402;0.016;2022-12-18T08:28:48;60.05;;;24.17;;
44774;SDS011;31340;51.402;0.016;2022-12-18T08:31:17;55.85;;;24.10;;
44774;SDS011;31340;51.402;0.016;2022-12-18T08:33:45;58.83;;;24.73;;
44774;SDS011;31340;51.402;0.016;2022-12-18T08:36:16;59.22;;;25.25;;
44774;SDS011;31340;51.402;0.016;2022-12-18T08:38:44;64.80;;;25.25;;
44774;SDS011;31340;51.402;0.016;2022-12-18T08:41:14;60.70;;;25.08;;
44774;SDS011;31340;51.402;0.016;2022-12-18T08:43:43;55.33;;;25.15;;
44774;SDS011;31340;51.402;0.016;2022-12-18T08:46:37;63.63;;;25.50;;
44774;SDS011;31340;51.402;0.016;2022-12-18T08:49:07;60.85;;;25.38;;
44774;SDS011;31340;51.402;0.016;2022-12-18T08:51:36;67.93;;;26.80;;
44774;SDS011;31340;51.402;0.016;2022-12-18T08:54:05;64.78;;;25.65;;
44774;SDS011;31340;51.402;0.016;2022-12-18T08:56:33;60.53;;;24.15;;
44774;SDS011;31340;51.402;0.016;2022-12-18T08:59:01;60.53;;;25.63;;
44774;SDS011;31340;51.402;0.016;2022-12-18T09:01:29;65.05;;;26.92;;
44774;SDS011;31340;51.402;0.016;2022-12-18T09:03:58;59.78;;;25.48;;
44774;SDS011;31340;51.402;0.016;2022-12-18T09:06:26;55.35;;;25.00;;
44774;SDS011;31340;51.402;0.016;2022-12-18T09:08:53;59.70;;;25.23;;
44774;SDS011;31340;51.402;0.016;2022-12-18T09:11:22;59.45;;;25.73;;
44774;SDS011;31340;51.402;0.016;2022-12-18T09:13:53;56.72;;;26.50;;
44774;SDS011;31340;51.402;0.016;2022-12-18T09:16:22;59.88;;;26.52;;
44774;SDS011;31340;51.402;0.016;2022-12-18T09:18:58;60.15;;;24.70;;
44774;SDS011;31340;51.402;0.016;2022-12-18T09:21:27;56.83;;;25.58;;
44774;SDS011;31340;51.402;0.016;2022-12-18T09:23:59;60.28;;;26.10;;
44774;SDS011;31340;51.402;0.016;2022-12-18T09:26:27;64.68;;;26.85;;
44774;SDS011;31340;51.402;0.016;2022-12-18T09:28:55;61.53;;;25.88;;
44774;SDS011;31340;51.402;0.016;2022-12-18T09:31:23;56.78;;;25.77;;
44774;SDS011;31340;51.402;0.016;2022-12-18T09:33:51;55.15;;;26.08;;
44774;SDS011;31340;51.402;0.016;2022-12-18T09:36:19;54.13;;;24.90;;
44774;SDS011;31340;51.402;0.016;2022-12-18T09:38:47;63.00;;;26.25;;
44774;SDS011;31340;51.402;0.016;2022-12-18T09:43:53;58.05;;;25.38;;
44774;SDS011;31340;51.402;0.016;2022-12-18T09:46:27;59.45;;;26.23;;
44774;SDS011;31340;51.402;0.016;2022-12-18T09:49:07;57.42;;;25.67;;
44774;SDS011;31340;51.402;0.016;2022-12-18T09:51:43;58.75;;;26.48;;
44774;SDS011;31340;51.402;0.016;2022-12-18T09:54:21;58.42;;;26.13;;
44774;SDS011;31340;51.402;0.016;2022-12-18T09:56:53;56.63;;;24.98;;
44774;SDS011;31340;51.402;0.016;2022-12-18T09:59:25;55.63;;;24.75;;
44774;SDS011;31340;51.402;0.016;2022-12-18T10:01:58;61.22;;;24.85;;
44774;SDS011;31340;51.402;0.016;2022-12-18T10:04:27;60.70;;;25.90;;
44774;SDS011;31340;51.402;0.016;2022-12-18T10:07:19;58.33;;;24.55;;
44774;SDS011;31340;51.402;0.016;2022-12-18T10:10:13;55.88;;;24.98;;
44774;SDS011;31340;51.402;0.016;2022-12-18T10:13:27;61.38;;;25.33;;
44774;SDS011;31340;51.402;0.016;2022-12-18T10:24:54;54.00;;;22.75;;
44774;SDS011;31340;51.402;0.016;2022-12-18T10:27:28;50.40;;;23.20;;
44774;SDS011;31340;51.402;0.016;2022-12-18T10:29:58;57.47;;;24.77;;
44774;SDS011;31340;51.402;0.016;2022-12-18T10:32:29;56.95;;;23.73;;
44774;SDS011;31340;51.402;0.016;2022-12-18T10:34:58;54.45;;;23.00;;
44774;SDS011;31340;51.402;0.016;2022-12-18T10:37:27;54.40;;;22.27;;
44774;SDS011;31340;51.402;0.016;2022-12-18T10:42:34;51.35;;;22.15;;
44774;SDS011;31340;51.402;0.016;2022-12-18T10:45:05;53.63;;;22.55;;
44774;SDS011;31340;51.402;0.016;2022-12-18T10:47:37;48.90;;;22.13;;
44774;SDS011;31340;51.402;0.016;2022-12-18T10:50:29;51.00;;;22.08;;
44774;SDS011;31340;51.402;0.016;2022-12-18T10:53:28;55.20;;;23.98;;
44774;SDS011;31340;51.402;0.016;2022-12-18T10:56:01;48.63;;;22.90;;
44774;SDS011;31340;51.402;0.016;2022-12-18T10:58:35;50.88;;;22.27;;
44774;SDS011;31340;51.402;0.016;2022-12-18T11:06:13;52.10;;;22.58;;
44774;SDS011;31340;51.402;0.016;2022-12-18T11:08:43;44.33;;;21.15;;
44774;SDS011;31340;51.402;0.016;2022-12-18T11:11:24;52.30;;;22.08;;
44774;SDS011;31340;51.402;0.016;2022-12-18T11:16:30;44.28;;;21.38;;
44774;SDS011;31340;51.402;0.016;2022-12-18T11:19:33;46.50;;;22.10;;
44774;SDS011;31340;51.402;0.016;2022-12-18T11:22:21;49.42;;;22.30;;
44774;SDS011;31340;51.402;0.016;2022-12-18T11:25:03;50.28;;;22.55;;
44774;SDS011;31340;51.402;0.016;2022-12-18T11:28:02;51.65;;;24.17;;
44774;SDS011;31340;51.402;0.016;2022-12-18T11:30:33;46.03;;;22.70;;
44774;SDS011;31340;51.402;0.016;2022-12-18T11:35:45;51.88;;;24.85;;
44774;SDS011;31340;51.402;0.016;2022-12-18T11:40:56;52.53;;;25.13;;
44774;SDS011;31340;51.402;0.016;2022-12-18T11:44:13;57.22;;;25.08;;
44774;SDS011;31340;51.402;0.016;2022-12-18T11:46:51;56.88;;;25.60;;
44774;SDS011;31340;51.402;0.016;2022-12-18T11:49:28;59.80;;;26.23;;
44774;SDS011;31340;51.402;0.016;2022-12-18T11:54:45;61.30;;;27.88;;
44774;SDS011;31340;51.402;0.016;2022-12-18T11:57:26;63.88;;;28.75;;
44774;SDS011;31340;51.402;0.016;2022-12-18T12:00:13;65.68;;;27.08;;
44774;SDS011;31340;51.402;0.016;2022-12-18T12:03:02;57.88;;;27.27;;
44774;SDS011;31340;51.402;0.016;2022-12-18T12:11:21;55.22;;;27.38;;
44774;SDS011;31340;51.402;0.016;2022-12-18T12:16:37;65.55;;;27.42;;
44774;SDS011;31340;51.402;0.016;2022-12-18T12:19:21;68.95;;;29.13;;
44774;SDS011;31340;51.402;0.016;2022-12-18T12:22:13;58.22;;;25.92;;
44774;SDS011;31340;51.402;0.016;2022-12-18T12:27:37;67.68;;;29.00;;
44774;SDS011;31340;51.402;0.016;2022-12-18T12:30:35;64.90;;;28.23;;
44774;SDS011;31340;51.402;0.016;2022-12-18T12:36:04;64.18;;;27.73;;
44774;SDS011;31340;51.402;0.016;2022-12-18T12:38:54;64.45;;;29.58;;
44774;SDS011;31340;51.402;0.016;2022-12-18T12:41:25;60.72;;;26.92;;
44774;SDS011;31340;51.402;0.016;2022-12-18T12:44:14;72.72;;;30.05;;
44774;SDS011;31340;51.402;0.016;2022-12-18T12:47:11;72.43;;;30.27;;
44774;SDS011;31340;51.402;0.016;2022-12-18T12:49:50;70.97;;;29.92;;
44774;SDS011;31340;51.402;0.016;2022-12-18T12:52:30;67.72;;;30.45;;
44774;SDS011;31340;51.402;0.016;2022-12-18T12:55:12;63.45;;;28.00;;
44774;SDS011;31340;51.402;0.016;2022-12-18T13:00:30;58.88;;;29.13;;
44774;SDS011;31340;51.402;0.016;2022-12-18T13:03:24;70.78;;;29.33;;
44774;SDS011;31340;51.402;0.016;2022-12-18T13:06:14;60.47;;;27.63;;
44774;SDS011;31340;51.402;0.016;2022-12-18T13:09:10;65.13;;;27.50;;
44774;SDS011;31340;51.402;0.016;2022-12-18T13:11:41;59.65;;;29.15;;
44774;SDS011;31340;51.402;0.016;2022-12-18T13:14:39;61.88;;;28.85;;
44774;SDS011;31340;51.402;0.016;2022-12-18T13:17:14;65.88;;;27.60;;
44774;SDS011;31340;51.402;0.016;2022-12-18T13:19:44;62.45;;;27.55;;
44774;SDS011;31340;51.402;0.016;2022-12-18T13:22:28;58.72;;;27.77;;
44774;SDS011;31340;51.402;0.016;2022-12-18T13:40:59;54.58;;;25.02;;
44774;SDS011;31340;51.402;0.016;2022-12-18T13:43:48;55.47;;;24.00;;
44774;SDS011;31340;51.402;0.016;2022-12-18T13:51:59;51.72;;;22.33;;
44774;SDS011;31340;51.402;0.016;2022-12-18T13:57:02;48.83;;;23.10;;
44774;SDS011;31340;51.402;0.016;2022-12-18T13:59:36;46.60;;;21.88;;
44774;SDS011;31340;51.402;0.016;2022-12-18T14:02:15;46.58;;;21.92;;
44774;SDS011;31340;51.402;0.016;2022-12-18T14:04:45;47.85;;;20.77;;
44774;SDS011;31340;51.402;0.016;2022-12-18T14:07:14;46.58;;;23.70;;
44774;SDS011;31340;51.402;0.016;2022-12-18T14:09:47;45.97;;;21.20;;
44774;SDS011;31340;51.402;0.016;2022-12-18T14:12:22;47.97;;;21.38;;
44774;SDS011;31340;51.402;0.016;2022-12-18T14:15:18;45.78;;;20.88;;
44774;SDS011;31340;51.402;0.016;2022-12-18T14:18:01;52.08;;;22.42;;
44774;SDS011;31340;51.402;0.016;2022-12-18T14:20:35;40.30;;;19.90;;
44774;SDS011;31340;51.402;0.016;2022-12-18T14:23:24;47.47;;;20.65;;
44774;SDS011;31340;51.402;0.016;2022-12-18T14:25:51;46.28;;;21.00;;
44774;SDS011;31340;51.402;0.016;2022-12-18T14:28:19;44.65;;;21.05;;
44774;SDS011;31340;51.402;0.016;2022-12-18T14:30:48;41.00;;;19.95;;
44774;SDS011;31340;51.402;0.016;2022-12-18T14:33:20;43.20;;;20.33;;
44774;SDS011;31340;51.402;0.016;2022-12-18T14:38:31;42.00;;;20.35;;
44774;SDS011;31340;51.402;0.016;2022-12-18T14:43:39;41.90;;;20.00;;
44774;SDS011;31340;51.402;0.016;2022-12-18T14:48:55;44.17;;;20.00;;
44774;SDS011;31340;51.402;0.016;2022-12-18T14:51:24;36.70;;;17.48;;
44774;SDS011;31340;51.402;0.016;2022-12-18T14:53:59;42.30;;;19.75;;
44774;SDS011;31340;51.402;0.016;2022-12-18T14:59:02;44.70;;;20.50;;
44774;SDS011;31340;51.402;0.016;2022-12-18T15:01:36;39.83;;;19.25;;
44774;SDS011;31340;51.402;0.016;2022-12-18T15:04:21;47.25;;;20.48;;
44774;SDS011;31340;51.402;0.016;2022-12-18T15:09:32;44.65;;;22.00;;
44774;SDS011;31340;51.402;0.016;2022-12-18T15:12:00;54.75;;;22.67;;
44774;SDS011;31340;51.402;0.016;2022-12-18T15:14:32;41.38;;;19.65;;
44774;SDS011;31340;51.402;0.016;2022-12-18T15:17:17;41.10;;;18.95;;
44774;SDS011;31340;51.402;0.016;2022-12-18T15:19:50;41.08;;;19.77;;
44774;SDS011;31340;51.402;0.016;2022-12-18T15:22:27;36.03;;;17.83;;
44774;SDS011;31340;51.402;0.016;2022-12-18T15:25:01;44.92;;;18.85;;
44774;SDS011;31340;51.402;0.016;2022-12-18T15:27:34;43.15;;;19.42;;
44774;SDS011;31340;51.402;0.016;2022-12-18T15:32:35;37.75;;;18.90;;
44774;SDS011;31340;51.402;0.016;2022-12-18T15:37:37;43.15;;;20.13;;
44774;SDS011;31340;51.402;0.016;2022-12-18T15:40:06;43.67;;;20.08;;
44774;SDS011;31340;51.402;0.016;2022-12-18T15:42:45;39.10;;;19.13;;
44774;SDS011;31340;51.402;0.016;2022-12-18T15:45:32;45.28;;;21.02;;
44774;SDS011;31340;51.402;0.016;2022-12-18T15:48:00;41.88;;;20.35;;
44774;SDS011;31340;51.402;0.016;2022-12-18T15:50:30;42.97;;;20.80;;
44774;SDS011;31340;51.402;0.016;2022-12-18T15:52:58;35.47;;;18.90;;
44774;SDS011;31340;51.402;0.016;2022-12-18T15:55:25;40.83;;;18.50;;
44774;SDS011;31340;51.402;0.016;2022-12-18T15:58:12;37.42;;;18.58;;
44774;SDS011;31340;51.402;0.016;2022-12-18T16:00:41;41.60;;;18.02;;
44774;SDS011;31340;51.402;0.016;2022-12-18T16:03:11;35.22;;;18.23;;
44774;SDS011;31340;51.402;0.016;2022-12-18T16:05:38;39.03;;;18.02;;
44774;SDS011;31340;51.402;0.016;2022-12-18T16:08:06;36.25;;;19.17;;
44774;SDS011;31340;51.402;0.016;2022-12-18T16:10:33;33.80;;;17.08;;
44774;SDS011;31340;51.402;0.016;2022-12-18T16:13:02;34.38;;;17.52;;
44774;SDS011;31340;51.402;0.016;2022-12-18T16:15:29;30.63;;;15.52;;
44774;SDS011;31340;51.402;0.016;2022-12-18T16:17:56;32.08;;;15.95;;
44774;SDS011;31340;51.402;0.016;2022-12-18T16:20:24;28.42;;;14.55;;
44774;SDS011;31340;51.402;0.016;2022-12-18T16:22:51;27.33;;;14.20;;
44774;SDS011;31340;51.402;0.016;2022-12-18T16:25:20;27.27;;;13.32;;
44774;SDS011;31340;51.402;0.016;2022-12-18T16:27:50;26.88;;;13.45;;
44774;SDS011;31340;51.402;0.016;2022-12-18T16:30:19;27.45;;;13.50;;
44774;SDS011;31340;51.402;0.016;2022-12-18T16:32:48;25.92;;;12.75;;
44774;SDS011;31340;51.402;0.016;2022-12-18T16:35:17;28.05;;;13.82;;
44774;SDS011;31340;51.402;0.016;2022-12-18T16:37:44;25.08;;;12.30;;
44774;SDS011;31340;51.402;0.016;2022-12-18T16:40:13;20.70;;;11.88;;
44774;SDS011;31340;51.402;0.016;2022-12-18T16:42:43;22.02;;;11.90;;
44774;SDS011;31340;51.402;0.016;2022-12-18T16:45:13;19.50;;;10.57;;
44774;SDS011;31340;51.402;0.016;2022-12-18T16:47:42;23.85;;;12.63;;
44774;SDS011;31340;51.402;0.016;2022-12-18T16:50:10;22.35;;;11.57;;
44774;SDS011;31340;51.402;0.016;2022-12-18T16:52:38;17.38;;;9.88;;
44774;SDS011;31340;51.402;0.016;2022-12-18T16:55:06;18.90;;;10.50;;